Time;durP1;ratioP1;P1;durP2;ratioP2;P2;SDS_P1;SDS_P2;PMS_P1;PMS_P2;Temp;Humidity;BMP_temperature;BMP_pressure;BME280_temperature;BME280_humidity;BME280_pressure;Samples;Min_cycle;Max_cycle;Signal;HPM_P1;HPM_P2
2023/06/02 00:00:20;;;;;;;;;;;24.40;44.30;;;;;;5066469;28;19985;-71
2023/06/02 00:02:51;;;;;;;;;;;24.40;44.30;;;;;;5063521;28;20021;-71
2023/06/02 00:05:17;;;;;;;;;;;24.30;44.50;;;;;;5066539;28;20746;-72
2023/06/02 00:07:44;;;;;;;;;;;24.20;44.10;;;;;;5069748;28;19932;-71
2023/06/02 00:10:12;;;;;;;;;;;24.20;44.10;;;;;;5065944;28;19928;-72
2023/06/02 00:12:39;;;;;;;;;;;24.20;44.20;;;;;;5068517;28;19935;-72
2023/06/02 00:15:07;;;;;;;;;;;24.10;44.20;;;;;;5059822;28;19928;-72
2023/06/02 00:17:34;;;;;;;;;;;24.00;44.40;;;;;;5064084;28;20569;-72
2023/06/02 00:20:00;;;;;;;;;;;24.00;44.60;;;;;;5061091;28;20315;-71
2023/06/02 00:22:29;;;;;;;;;;;23.90;44.60;;;;;;5063511;28;20674;-71
2023/06/02 00:24:55;;;;;;;;;;;23.90;44.60;;;;;;5062188;28;20649;-72
2023/06/02 00:27:23;;;;;;;;;;;23.80;44.60;;;;;;5060314;28;19985;-71
2023/06/02 00:29:50;;;;;;;;;;;23.80;44.40;;;;;;5069055;28;19998;-72
2023/06/02 00:32:16;;;;;;;;;;;23.80;44.50;;;;;;5064926;28;20208;-72
2023/06/02 00:34:43;;;;;;;;;;;23.70;44.40;;;;;;5056687;28;20349;-71
2023/06/02 00:37:09;;;;;;;;;;;23.70;44.40;;;;;;5061242;28;20017;-71
2023/06/02 00:39:36;;;;;;;;;;;23.60;44.60;;;;;;5075501;28;19928;-71
2023/06/02 00:42:02;;;;;;;;;;;23.60;44.60;;;;;;5065230;28;19933;-71
2023/06/02 00:44:30;;;;;;;;;;;23.50;44.60;;;;;;5061728;28;20705;-71
2023/06/02 00:46:57;;;;;;;;;;;23.50;44.60;;;;;;5070785;28;20733;-71
2023/06/02 00:49:23;;;;;;;;;;;23.50;44.40;;;;;;5066896;28;19932;-72
2023/06/02 00:51:50;;;;;;;;;;;23.40;44.70;;;;;;5061226;28;19932;-71
2023/06/02 00:54:17;;;;;;;;;;;23.40;44.70;;;;;;5067436;28;19989;-71
2023/06/02 00:56:44;;;;;;;;;;;23.40;44.90;;;;;;5061248;28;19932;-71
2023/06/02 00:59:11;;;;;;;;;;;23.40;44.90;;;;;;5068640;28;20009;-71
2023/06/02 01:01:40;;;;;;;;;;;23.30;44.90;;;;;;5057454;28;19982;-71
2023/06/02 01:04:07;;;;;;;;;;;23.20;45.00;;;;;;5061227;28;19960;-71
2023/06/02 01:06:36;;;;;;;;;;;23.20;45.20;;;;;;5062227;28;20041;-72
2023/06/02 01:09:03;;;;;;;;;;;23.20;45.20;;;;;;5060766;28;20179;-71
2023/06/02 01:11:30;;;;;;;;;;;23.20;44.90;;;;;;5060971;28;19934;-72
2023/06/02 01:13:56;;;;;;;;;;;23.10;44.90;;;;;;5068648;28;19933;-72
2023/06/02 01:16:23;;;;;;;;;;;23.10;45.00;;;;;;5056896;28;19940;-71
2023/06/02 01:18:51;;;;;;;;;;;23.00;45.10;;;;;;5061204;28;20005;-71
2023/06/02 01:21:23;;;;;;;;;;;23.00;45.40;;;;;;5053844;28;19933;-71
2023/06/02 01:23:53;;;;;;;;;;;23.00;45.20;;;;;;5055074;28;20429;-71
2023/06/02 01:26:19;;;;;;;;;;;22.90;45.20;;;;;;5064138;28;20436;-72
2023/06/02 01:28:46;;;;;;;;;;;22.90;45.40;;;;;;5058528;28;20023;-71
2023/06/02 01:31:15;;;;;;;;;;;22.90;45.50;;;;;;5069434;28;19935;-71
2023/06/02 01:33:44;;;;;;;;;;;22.80;45.50;;;;;;5056180;28;19929;-71
2023/06/02 01:36:10;;;;;;;;;;;22.80;45.70;;;;;;5071987;28;20384;-72
2023/06/02 01:38:39;;;;;;;;;;;22.70;45.60;;;;;;5055982;28;19929;-71
2023/06/02 01:41:07;;;;;;;;;;;22.70;45.70;;;;;;5051714;28;19981;-71
2023/06/02 01:43:35;;;;;;;;;;;22.60;45.70;;;;;;5050278;28;19924;-71
2023/06/02 01:46:01;;;;;;;;;;;22.60;46.00;;;;;;5054007;28;19924;-71
2023/06/02 01:48:28;;;;;;;;;;;22.60;46.00;;;;;;5055377;28;20457;-71
2023/06/02 01:50:55;;;;;;;;;;;22.50;46.00;;;;;;5059578;28;20293;-71
2023/06/02 01:53:23;;;;;;;;;;;22.50;46.00;;;;;;5057042;28;20010;-71
2023/06/02 01:55:49;;;;;;;;;;;22.50;46.20;;;;;;5049275;28;19932;-71
2023/06/02 01:58:17;;;;;;;;;;;22.40;46.30;;;;;;5053039;28;19931;-72
2023/06/02 02:00:43;;;;;;;;;;;22.40;46.20;;;;;;5049351;28;19975;-71
2023/06/02 02:03:12;;;;;;;;;;;22.30;46.30;;;;;;5056573;28;19933;-71
2023/06/02 02:05:38;;;;;;;;;;;22.30;46.40;;;;;;5058806;28;20024;-71
2023/06/02 02:08:05;;;;;;;;;;;22.20;46.60;;;;;;5053607;28;21173;-71
2023/06/02 02:10:32;;;;;;;;;;;22.20;47.20;;;;;;5054519;28;19931;-72
2023/06/02 02:12:58;;;;;;;;;;;22.20;46.60;;;;;;5055745;28;19933;-71
2023/06/02 02:15:27;;;;;;;;;;;22.10;46.80;;;;;;5062328;28;19990;-72
2023/06/02 02:17:56;;;;;;;;;;;22.10;47.00;;;;;;5055492;28;19925;-72
2023/06/02 02:20:23;;;;;;;;;;;22.10;47.00;;;;;;5058884;28;19924;-72
2023/06/02 02:22:50;;;;;;;;;;;22.00;46.90;;;;;;5058258;28;19932;-72
2023/06/02 02:25:16;;;;;;;;;;;22.00;47.00;;;;;;5057201;28;19978;-71
2023/06/02 02:27:43;;;;;;;;;;;22.00;47.10;;;;;;5055086;28;20024;-72
2023/06/02 02:30:10;;;;;;;;;;;22.00;47.10;;;;;;5050407;28;20357;-71
2023/06/02 02:32:39;;;;;;;;;;;21.90;47.20;;;;;;5051874;28;19929;-71
2023/06/02 02:35:06;;;;;;;;;;;21.80;47.20;;;;;;5056647;28;19928;-71
2023/06/02 02:37:33;;;;;;;;;;;21.80;47.30;;;;;;5059712;28;19932;-71
2023/06/02 02:39:59;;;;;;;;;;;21.70;47.30;;;;;;5059239;28;20259;-71
2023/06/02 02:42:26;;;;;;;;;;;21.70;47.60;;;;;;5054998;28;19933;-71
2023/06/02 02:44:52;;;;;;;;;;;21.70;47.60;;;;;;5064106;28;20670;-72
2023/06/02 02:47:20;;;;;;;;;;;21.70;47.70;;;;;;5061904;28;19932;-72
2023/06/02 02:49:48;;;;;;;;;;;21.60;47.70;;;;;;5058621;28;20003;-72
2023/06/02 02:52:14;;;;;;;;;;;21.60;47.90;;;;;;5058858;28;19939;-71
2023/06/02 02:54:41;;;;;;;;;;;21.50;47.90;;;;;;5063300;28;19959;-71
2023/06/02 02:57:08;;;;;;;;;;;21.50;48.10;;;;;;5063344;28;19943;-71
2023/06/02 02:59:35;;;;;;;;;;;21.40;48.30;;;;;;5060365;28;19932;-72
2023/06/02 03:02:02;;;;;;;;;;;21.40;48.40;;;;;;5065636;28;19928;-71
2023/06/02 03:04:28;;;;;;;;;;;21.40;48.50;;;;;;5064121;28;20042;-71
2023/06/02 03:06:56;;;;;;;;;;;21.30;48.50;;;;;;5061144;28;19974;-71
2023/06/02 03:09:23;;;;;;;;;;;21.30;48.60;;;;;;5062141;28;19987;-72
2023/06/02 03:11:49;;;;;;;;;;;21.20;48.80;;;;;;5062352;28;20341;-71
2023/06/02 03:14:16;;;;;;;;;;;21.20;48.80;;;;;;5062717;28;19933;-71
2023/06/02 03:16:44;;;;;;;;;;;21.20;48.90;;;;;;5060801;28;20451;-71
2023/06/02 03:19:12;;;;;;;;;;;21.20;49.00;;;;;;5061608;28;19932;-71
2023/06/02 03:21:43;;;;;;;;;;;21.10;49.10;;;;;;5066464;28;19935;-70
2023/06/02 03:24:12;;;;;;;;;;;21.10;49.10;;;;;;5061537;28;21047;-71
2023/06/02 03:26:40;;;;;;;;;;;21.00;49.30;;;;;;5056512;28;19935;-71
2023/06/02 03:29:07;;;;;;;;;;;21.00;49.30;;;;;;5067977;28;20414;-71
2023/06/02 03:31:33;;;;;;;;;;;21.00;49.40;;;;;;5061139;28;19998;-71
2023/06/02 03:34:00;;;;;;;;;;;20.90;49.40;;;;;;5068016;28;19935;-71
2023/06/02 03:36:26;;;;;;;;;;;20.90;49.60;;;;;;5060583;28;19998;-71
2023/06/02 03:38:53;;;;;;;;;;;20.90;49.70;;;;;;5065074;28;19932;-71
2023/06/02 03:41:21;;;;;;;;;;;20.80;49.70;;;;;;5060990;28;19974;-72
2023/06/02 03:43:48;;;;;;;;;;;20.80;50.50;;;;;;5059635;28;19934;-71
2023/06/02 03:46:14;;;;;;;;;;;20.70;50.00;;;;;;5062134;28;19928;-71
2023/06/02 03:48:41;;;;;;;;;;;20.70;50.10;;;;;;5064051;28;19933;-70
2023/06/02 03:51:07;;;;;;;;;;;20.70;50.10;;;;;;5052180;28;19982;-70
2023/06/02 03:53:34;;;;;;;;;;;20.60;50.10;;;;;;5066411;28;19928;-71
2023/06/02 03:56:00;;;;;;;;;;;20.60;50.20;;;;;;5060002;28;20398;-71
2023/06/02 03:58:28;;;;;;;;;;;20.60;50.30;;;;;;5065428;28;19994;-71
2023/06/02 04:00:56;;;;;;;;;;;20.60;50.40;;;;;;5063113;28;19936;-71
2023/06/02 04:03:23;;;;;;;;;;;20.50;50.50;;;;;;5058591;28;19959;-71
2023/06/02 04:05:49;;;;;;;;;;;20.40;50.60;;;;;;5063954;28;19929;-70
2023/06/02 04:08:16;;;;;;;;;;;20.50;50.60;;;;;;5056844;28;19967;-71
2023/06/02 04:10:43;;;;;;;;;;;20.40;50.60;;;;;;5061450;28;20116;-71
2023/06/02 04:13:09;;;;;;;;;;;20.30;50.70;;;;;;5063715;28;19928;-71
2023/06/02 04:15:37;;;;;;;;;;;20.30;50.80;;;;;;5057957;28;19998;-71
2023/06/02 04:18:04;;;;;;;;;;;20.30;50.90;;;;;;5064561;28;19929;-71
2023/06/02 04:20:31;;;;;;;;;;;20.30;51.00;;;;;;5055772;28;19963;-71
2023/06/02 04:22:58;;;;;;;;;;;20.20;51.00;;;;;;5061669;28;19924;-70
2023/06/02 04:25:25;;;;;;;;;;;20.20;51.10;;;;;;5056610;28;20561;-71
2023/06/02 04:27:51;;;;;;;;;;;20.20;51.10;;;;;;5054855;28;22170;-71
2023/06/02 04:30:18;;;;;;;;;;;20.20;51.20;;;;;;5063467;28;20580;-71
2023/06/02 04:32:46;;;;;;;;;;;20.10;51.20;;;;;;5057288;28;20343;-71
2023/06/02 04:35:13;;;;;;;;;;;20.00;51.30;;;;;;5065487;28;19924;-71
2023/06/02 04:37:43;;;;;;;;;;;20.00;51.40;;;;;;5061702;28;19929;-71
2023/06/02 04:40:10;;;;;;;;;;;20.00;51.40;;;;;;5060480;28;20817;-71
2023/06/02 04:42:38;;;;;;;;;;;20.00;51.50;;;;;;5060295;28;19932;-70
2023/06/02 04:45:05;;;;;;;;;;;19.90;51.60;;;;;;5064837;28;19940;-71
2023/06/02 04:47:32;;;;;;;;;;;19.90;51.60;;;;;;5060142;28;19936;-71
2023/06/02 04:50:00;;;;;;;;;;;19.90;51.60;;;;;;5058612;28;19933;-70
2023/06/02 04:52:26;;;;;;;;;;;19.90;51.70;;;;;;5062727;28;20689;-70
2023/06/02 04:54:53;;;;;;;;;;;19.80;51.70;;;;;;5066220;28;19997;-70
2023/06/02 04:57:19;;;;;;;;;;;19.80;51.80;;;;;;5061430;28;19989;-70
2023/06/02 04:59:46;;;;;;;;;;;19.80;51.90;;;;;;5064888;28;19932;-71
2023/06/02 05:02:13;;;;;;;;;;;19.70;51.90;;;;;;5060089;28;19982;-70
2023/06/02 05:04:39;;;;;;;;;;;19.70;52.00;;;;;;5071322;28;19928;-71
2023/06/02 05:07:08;;;;;;;;;;;19.70;52.10;;;;;;5064504;28;19982;-71
2023/06/02 05:09:34;;;;;;;;;;;19.70;52.20;;;;;;5066067;28;19928;-71
2023/06/02 05:12:01;;;;;;;;;;;19.60;52.20;;;;;;5061917;28;19932;-71
2023/06/02 05:14:27;;;;;;;;;;;19.60;52.30;;;;;;5062953;28;19928;-71
2023/06/02 05:16:54;;;;;;;;;;;19.60;52.40;;;;;;5065937;28;20016;-70
2023/06/02 05:19:21;;;;;;;;;;;19.60;52.40;;;;;;5060763;28;19924;-70
2023/06/02 05:21:47;;;;;;;;;;;19.50;52.40;;;;;;5056968;28;19933;-71
2023/06/02 05:24:15;;;;;;;;;;;19.50;52.40;;;;;;5055362;28;19924;-71
2023/06/02 05:26:42;;;;;;;;;;;19.50;52.50;;;;;;5058540;28;19928;-71
2023/06/02 05:29:08;;;;;;;;;;;19.50;52.60;;;;;;5055183;28;20636;-71
2023/06/02 05:31:35;;;;;;;;;;;19.40;52.60;;;;;;5057377;28;19929;-70
2023/06/02 05:34:02;;;;;;;;;;;19.40;52.60;;;;;;5054845;28;19929;-71
2023/06/02 05:36:28;;;;;;;;;;;19.40;52.70;;;;;;5055474;28;19929;-71
2023/06/02 05:38:55;;;;;;;;;;;19.40;52.70;;;;;;5053799;28;19933;-70
2023/06/02 05:41:24;;;;;;;;;;;19.40;52.80;;;;;;5056611;28;19986;-70
2023/06/02 05:43:51;;;;;;;;;;;19.40;52.80;;;;;;5056177;28;20612;-71
2023/06/02 05:46:17;;;;;;;;;;;19.40;52.80;;;;;;5059645;28;20005;-72
2023/06/02 05:48:45;;;;;;;;;;;19.30;53.90;;;;;;5063174;28;20692;-74
2023/06/02 05:51:12;;;;;;;;;;;19.00;54.60;;;;;;5065556;28;19974;-73
2023/06/02 05:53:38;;;;;;;;;;;18.80;55.00;;;;;;5062508;28;19974;-73
2023/06/02 05:56:05;;;;;;;;;;;18.80;55.10;;;;;;5067333;28;20393;-73
2023/06/02 05:58:37;;;;;;;;;;;18.70;55.20;;;;;;5060557;28;19985;-73
2023/06/02 06:01:03;;;;;;;;;;;18.80;55.30;;;;;;5062138;28;19928;-73
2023/06/02 06:03:30;;;;;;;;;;;18.70;55.00;;;;;;5065700;28;19928;-73
2023/06/02 06:05:56;;;;;;;;;;;18.80;55.00;;;;;;5068756;28;20012;-73
2023/06/02 06:08:23;;;;;;;;;;;18.80;54.90;;;;;;5066730;28;19975;-74
2023/06/02 06:10:49;;;;;;;;;;;18.80;54.90;;;;;;5066398;28;19932;-74
2023/06/02 06:13:16;;;;;;;;;;;18.80;54.80;;;;;;5065690;28;19932;-74
2023/06/02 06:15:47;;;;;;;;;;;18.90;54.80;;;;;;5065416;28;19928;-73
2023/06/02 06:18:14;;;;;;;;;;;18.90;54.90;;;;;;5067310;28;19943;-73
2023/06/02 06:20:41;;;;;;;;;;;18.90;54.80;;;;;;5053649;28;19972;-73
2023/06/02 06:23:08;;;;;;;;;;;18.90;54.80;;;;;;5063006;28;19974;-73
2023/06/02 06:25:35;;;;;;;;;;;18.90;54.70;;;;;;5055107;28;20624;-73
2023/06/02 06:28:01;;;;;;;;;;;18.90;55.30;;;;;;5053630;28;19958;-74
2023/06/02 06:30:28;;;;;;;;;;;18.90;55.50;;;;;;5059762;28;19936;-73
2023/06/02 06:32:55;;;;;;;;;;;18.80;55.60;;;;;;5055099;28;20002;-72
2023/06/02 06:35:22;;;;;;;;;;;18.90;55.70;;;;;;5048062;28;20629;-72
2023/06/02 06:37:48;;;;;;;;;;;18.90;55.60;;;;;;5055455;28;19935;-72
2023/06/02 06:40:15;;;;;;;;;;;19.00;55.50;;;;;;5052073;28;19928;-73
2023/06/02 06:42:42;;;;;;;;;;;19.00;55.40;;;;;;5058072;28;19935;-73
2023/06/02 06:45:09;;;;;;;;;;;19.10;55.20;;;;;;5058629;28;19983;-73
2023/06/02 06:47:35;;;;;;;;;;;19.10;55.10;;;;;;5057512;28;19928;-72
2023/06/02 06:50:03;;;;;;;;;;;19.10;54.90;;;;;;5057713;28;19937;-73
2023/06/02 06:52:29;;;;;;;;;;;19.20;54.90;;;;;;5053583;28;19925;-73
2023/06/02 06:54:56;;;;;;;;;;;19.20;54.80;;;;;;5055445;28;19928;-73
2023/06/02 06:57:22;;;;;;;;;;;19.20;54.70;;;;;;5054856;28;19982;-73
2023/06/02 06:59:49;;;;;;;;;;;19.30;54.50;;;;;;5054742;28;19936;-73
2023/06/02 07:02:16;;;;;;;;;;;19.30;54.40;;;;;;5052569;28;20006;-72
2023/06/02 07:04:42;;;;;;;;;;;19.40;54.40;;;;;;5055101;28;19979;-72
2023/06/02 07:07:12;;;;;;;;;;;19.40;54.20;;;;;;5054327;28;20263;-72
2023/06/02 07:09:39;;;;;;;;;;;19.40;54.20;;;;;;5051099;28;19986;-72
2023/06/02 07:12:06;;;;;;;;;;;19.40;54.60;;;;;;5052559;28;19966;-72
2023/06/02 07:14:33;;;;;;;;;;;19.50;54.00;;;;;;5053276;28;19979;-72
2023/06/02 07:16:59;;;;;;;;;;;19.50;54.00;;;;;;5052464;28;19932;-72
2023/06/02 07:19:26;;;;;;;;;;;19.60;53.90;;;;;;5055462;28;20466;-72
2023/06/02 07:21:53;;;;;;;;;;;19.60;53.80;;;;;;5054680;28;19936;-72
2023/06/02 07:24:21;;;;;;;;;;;19.50;53.80;;;;;;5055248;28;19974;-73
2023/06/02 07:26:47;;;;;;;;;;;19.60;53.80;;;;;;5052079;28;19931;-73
2023/06/02 07:29:14;;;;;;;;;;;19.60;53.70;;;;;;5058611;28;19936;-72
2023/06/02 07:31:40;;;;;;;;;;;19.70;53.70;;;;;;5049458;28;19929;-72
2023/06/02 07:34:07;;;;;;;;;;;19.60;53.60;;;;;;5057849;28;19932;-72
2023/06/02 07:36:33;;;;;;;;;;;19.60;53.60;;;;;;5053967;28;19929;-73
2023/06/02 07:39:00;;;;;;;;;;;19.70;53.60;;;;;;5057555;28;20341;-73
2023/06/02 07:41:28;;;;;;;;;;;19.70;53.50;;;;;;5047622;28;20605;-72
2023/06/02 07:43:54;;;;;;;;;;;19.70;53.50;;;;;;5054374;28;19978;-72
2023/06/02 07:46:21;;;;;;;;;;;19.70;53.50;;;;;;5055685;28;19928;-73
2023/06/02 07:48:47;;;;;;;;;;;19.80;53.50;;;;;;5054784;28;19989;-73
2023/06/02 07:51:14;;;;;;;;;;;19.80;53.50;;;;;;5053664;28;20299;-73
2023/06/02 07:53:40;;;;;;;;;;;19.80;53.50;;;;;;5057726;28;20822;-72
2023/06/02 07:56:07;;;;;;;;;;;19.80;53.50;;;;;;5056913;28;19934;-72
2023/06/02 07:58:35;;;;;;;;;;;19.80;53.50;;;;;;5055382;28;19982;-72
2023/06/02 08:01:02;;;;;;;;;;;19.80;53.50;;;;;;5058841;28;19928;-73
2023/06/02 08:03:28;;;;;;;;;;;19.80;53.50;;;;;;5062435;28;19932;-72
2023/06/02 08:05:55;;;;;;;;;;;19.90;53.50;;;;;;5060349;28;19928;-72
2023/06/02 08:08:21;;;;;;;;;;;19.90;53.40;;;;;;5064126;28;19958;-72
2023/06/02 08:10:48;;;;;;;;;;;19.90;53.40;;;;;;5060322;28;19932;-72
2023/06/02 08:13:15;;;;;;;;;;;19.90;53.40;;;;;;5056141;28;19936;-72
2023/06/02 08:15:43;;;;;;;;;;;19.90;53.50;;;;;;5054849;28;19939;-72
2023/06/02 08:18:12;;;;;;;;;;;19.90;53.50;;;;;;5054663;28;19928;-72
2023/06/02 08:20:39;;;;;;;;;;;19.90;53.50;;;;;;5046978;28;19975;-72
2023/06/02 08:23:07;;;;;;;;;;;20.00;53.40;;;;;;5057212;28;19928;-72
2023/06/02 08:25:33;;;;;;;;;;;20.00;53.30;;;;;;5056134;28;19933;-72
2023/06/02 08:28:05;;;;;;;;;;;20.00;53.30;;;;;;5056635;28;19958;-72
2023/06/02 08:30:32;;;;;;;;;;;20.00;53.20;;;;;;5067168;28;19929;-72
2023/06/02 08:33:02;;;;;;;;;;;20.00;53.20;;;;;;5061798;28;19928;-72
2023/06/02 08:35:29;;;;;;;;;;;20.10;53.20;;;;;;5062900;28;19932;-73
2023/06/02 08:37:55;;;;;;;;;;;20.10;53.20;;;;;;5073541;28;19928;-72
2023/06/02 08:40:24;;;;;;;;;;;20.10;53.10;;;;;;5060669;28;20025;-73
2023/06/02 08:42:51;;;;;;;;;;;20.10;53.10;;;;;;5054329;28;19933;-73
2023/06/02 08:45:22;;;;;;;;;;;20.10;53.00;;;;;;5057081;28;20039;-72
2023/06/02 08:47:53;;;;;;;;;;;20.20;53.00;;;;;;5064397;28;20010;-73
2023/06/02 08:50:23;;;;;;;;;;;20.20;53.00;;;;;;5057194;28;19982;-72
2023/06/02 08:52:50;;;;;;;;;;;20.20;52.90;;;;;;5056758;28;20364;-72
2023/06/02 08:55:17;;;;;;;;;;;20.20;52.70;;;;;;5059415;28;19928;-72
2023/06/02 08:57:44;;;;;;;;;;;20.20;52.70;;;;;;5061023;28;19928;-72
2023/06/02 09:00:11;;;;;;;;;;;20.20;52.70;;;;;;5062969;28;19935;-73
2023/06/02 09:02:38;;;;;;;;;;;20.20;52.70;;;;;;5049020;28;20362;-72
2023/06/02 09:05:05;;;;;;;;;;;20.30;52.60;;;;;;5063110;28;19985;-72
2023/06/02 09:07:33;;;;;;;;;;;20.30;52.60;;;;;;5065459;28;20440;-72
2023/06/02 09:09:59;;;;;;;;;;;20.30;52.50;;;;;;5058944;28;20572;-72
2023/06/02 09:12:26;;;;;;;;;;;20.30;52.50;;;;;;5055364;28;20047;-73
2023/06/02 09:15:07;;;;;;;;;;;20.40;52.40;;;;;;5062630;28;19968;-73
2023/06/02 09:17:34;;;;;;;;;;;20.40;52.40;;;;;;5066081;28;19929;-72
2023/06/02 09:20:06;;;;;;;;;;;20.40;52.30;;;;;;5053865;28;20410;-73
2023/06/02 09:22:34;;;;;;;;;;;20.50;52.20;;;;;;5057253;28;19929;-73
2023/06/02 09:25:01;;;;;;;;;;;20.50;52.20;;;;;;5050319;28;19928;-72
2023/06/02 09:27:28;;;;;;;;;;;20.50;52.20;;;;;;5049788;28;19936;-74
2023/06/02 09:29:59;;;;;;;;;;;20.60;52.10;;;;;;5056253;28;19928;-73
2023/06/02 09:32:26;;;;;;;;;;;20.60;52.10;;;;;;5056375;28;19939;-73
2023/06/02 09:34:52;;;;;;;;;;;20.60;52.00;;;;;;5055321;28;19928;-73
2023/06/02 09:37:20;;;;;;;;;;;20.60;51.90;;;;;;5055087;28;19974;-73
2023/06/02 09:39:52;;;;;;;;;;;20.70;51.80;;;;;;5047856;28;19932;-74
2023/06/02 09:42:19;;;;;;;;;;;20.70;51.70;;;;;;5050799;28;19928;-73
2023/06/02 09:45:00;;;;;;;;;;;20.80;51.60;;;;;;5048870;28;19978;-73
2023/06/02 09:47:27;;;;;;;;;;;20.80;51.40;;;;;;5048531;28;19928;-73
2023/06/02 09:49:54;;;;;;;;;;;20.90;51.30;;;;;;5051414;28;20341;-75
2023/06/02 09:52:21;;;;;;;;;;;21.00;51.40;;;;;;5063550;28;19925;-74
2023/06/02 09:54:50;;;;;;;;;;;21.10;51.20;;;;;;5061613;28;19928;-75
2023/06/02 09:57:17;;;;;;;;;;;21.10;51.20;;;;;;5065310;28;19939;-75
2023/06/02 09:59:43;;;;;;;;;;;21.00;51.30;;;;;;5064385;28;19928;-75
2023/06/02 10:02:11;;;;;;;;;;;21.00;51.20;;;;;;5067092;28;19935;-75
2023/06/02 10:04:38;;;;;;;;;;;21.00;51.10;;;;;;5063870;28;19928;-74
2023/06/02 10:07:13;;;;;;;;;;;21.00;51.20;;;;;;5067197;28;19928;-75
2023/06/02 10:09:47;;;;;;;;;;;21.10;51.40;;;;;;5063643;28;20045;-75
2023/06/02 10:12:23;;;;;;;;;;;21.10;51.40;;;;;;5068312;28;19928;-75
2023/06/02 10:15:07;;;;;;;;;;;21.10;51.40;;;;;;5066192;28;19928;-75
2023/06/02 10:17:39;;;;;;;;;;;21.20;51.90;;;;;;5059897;28;19928;-75
2023/06/02 10:20:13;;;;;;;;;;;21.20;51.50;;;;;;5063665;28;19947;-75
2023/06/02 10:22:48;;;;;;;;;;;21.30;51.70;;;;;;5072447;28;19928;-74
2023/06/02 10:25:18;;;;;;;;;;;21.30;50.80;;;;;;5061120;28;19939;-76
2023/06/02 10:27:48;;;;;;;;;;;21.30;51.10;;;;;;5056218;28;19928;-75
2023/06/02 10:30:19;;;;;;;;;;;21.40;51.00;;;;;;5074417;28;20592;-74
2023/06/02 10:32:47;;;;;;;;;;;21.40;51.10;;;;;;5068307;28;19939;-75
2023/06/02 10:35:14;;;;;;;;;;;21.50;50.90;;;;;;5069741;28;19932;-79
2023/06/02 10:37:41;;;;;;;;;;;21.60;51.10;;;;;;5056026;28;19928;-78
2023/06/02 10:40:10;;;;;;;;;;;21.60;50.70;;;;;;5057301;28;19932;-78
2023/06/02 10:42:37;;;;;;;;;;;21.60;50.50;;;;;;5060314;28;19928;-78
2023/06/02 10:45:30;;;;;;;;;;;21.70;50.40;;;;;;5059704;28;19933;-79
2023/06/02 10:47:58;;;;;;;;;;;21.70;51.00;;;;;;5044657;28;19929;-79
2023/06/02 10:50:25;;;;;;;;;;;21.80;51.10;;;;;;5041387;28;19929;-79
2023/06/02 10:53:09;;;;;;;;;;;21.80;50.70;;;;;;5042834;28;19936;-78
2023/06/02 10:55:36;;;;;;;;;;;21.90;49.70;;;;;;5040028;28;19933;-78
2023/06/02 10:58:03;;;;;;;;;;;22.00;49.90;;;;;;5044283;28;21307;-78
2023/06/02 11:00:46;;;;;;;;;;;22.00;49.80;;;;;;5047962;28;19935;-79
2023/06/02 11:03:28;;;;;;;;;;;22.10;49.80;;;;;;5058984;28;20417;-79
2023/06/02 11:06:15;;;;;;;;;;;22.10;49.60;;;;;;5058299;28;19929;-79
2023/06/02 11:08:42;;;;;;;;;;;22.10;49.90;;;;;;5056177;28;20152;-79
2023/06/02 11:11:08;;;;;;;;;;;22.20;49.20;;;;;;5054504;28;19928;-78
2023/06/02 11:13:55;;;;;;;;;;;22.30;49.40;;;;;;5060844;28;19928;-79
2023/06/02 11:16:22;;;;;;;;;;;22.30;49.40;;;;;;5050313;28;19936;-79
2023/06/02 11:18:50;;;;;;;;;;;22.40;49.10;;;;;;5067277;28;20307;-79
2023/06/02 11:21:18;;;;;;;;;;;22.40;48.70;;;;;;5063611;28;20307;-79
2023/06/02 11:23:45;;;;;;;;;;;22.50;48.80;;;;;;5057634;28;19928;-78
2023/06/02 11:26:14;;;;;;;;;;;22.60;48.90;;;;;;5057309;28;19928;-79
2023/06/02 11:28:41;;;;;;;;;;;22.60;48.60;;;;;;5054646;28;20065;-79
2023/06/02 11:31:09;;;;;;;;;;;22.70;49.20;;;;;;5050915;28;19982;-78
2023/06/02 11:33:37;;;;;;;;;;;22.70;49.60;;;;;;5047938;28;19932;-79
2023/06/02 11:36:06;;;;;;;;;;;22.70;49.80;;;;;;5046911;28;19934;-79
2023/06/02 11:38:33;;;;;;;;;;;22.80;49.60;;;;;;5052085;28;19932;-79
2023/06/02 11:41:08;;;;;;;;;;;22.80;49.70;;;;;;5058777;28;19932;-79
2023/06/02 11:43:34;;;;;;;;;;;22.90;48.60;;;;;;5057356;28;20398;-80
2023/06/02 11:46:04;;;;;;;;;;;22.90;48.60;;;;;;5062704;28;19957;-79
2023/06/02 11:48:31;;;;;;;;;;;23.00;48.00;;;;;;5052141;28;20046;-79
2023/06/02 11:50:58;;;;;;;;;;;23.10;49.10;;;;;;5055561;28;19932;-79
2023/06/02 11:53:26;;;;;;;;;;;23.10;48.90;;;;;;5059592;28;20755;-79
2023/06/02 11:55:52;;;;;;;;;;;23.20;49.00;;;;;;5056238;28;19928;-79
2023/06/02 11:58:23;;;;;;;;;;;23.20;48.60;;;;;;5054238;28;20459;-79
2023/06/02 12:00:50;;;;;;;;;;;23.20;48.30;;;;;;5055417;28;20034;-80
2023/06/02 12:03:17;;;;;;;;;;;23.30;49.00;;;;;;5058567;28;19936;-79
2023/06/02 12:05:47;;;;;;;;;;;23.40;47.60;;;;;;5051200;28;19932;-81
2023/06/02 12:08:20;;;;;;;;;;;23.40;47.40;;;;;;5051953;28;19928;-79
2023/06/02 12:10:48;;;;;;;;;;;23.50;47.90;;;;;;5051804;28;19936;-79
2023/06/02 12:13:23;;;;;;;;;;;23.50;47.40;;;;;;5064907;28;19977;-81
2023/06/02 12:15:50;;;;;;;;;;;23.50;47.20;;;;;;5057446;28;19932;-79
2023/06/02 12:18:27;;;;;;;;;;;23.60;46.90;;;;;;5050151;28;19939;-79
2023/06/02 12:20:53;;;;;;;;;;;23.60;47.50;;;;;;5056793;28;19928;-80
2023/06/02 12:23:20;;;;;;;;;;;23.60;47.80;;;;;;5050602;28;19933;-79
2023/06/02 12:25:56;;;;;;;;;;;23.70;46.50;;;;;;5055254;28;19936;-79
2023/06/02 12:28:23;;;;;;;;;;;23.80;47.10;;;;;;5046042;28;19935;-79
2023/06/02 12:30:50;;;;;;;;;;;23.80;47.10;;;;;;5050400;28;19982;-79
2023/06/02 12:33:16;;;;;;;;;;;23.80;47.40;;;;;;5053039;28;20102;-79
2023/06/02 12:35:43;;;;;;;;;;;23.90;47.20;;;;;;5050923;28;20247;-79
2023/06/02 12:38:10;;;;;;;;;;;23.90;46.80;;;;;;5055711;28;19934;-80
2023/06/02 12:40:38;;;;;;;;;;;24.00;46.70;;;;;;5046252;28;20466;-80
2023/06/02 12:43:06;;;;;;;;;;;24.00;46.40;;;;;;5056394;28;19981;-79
2023/06/02 12:45:33;;;;;;;;;;;24.10;46.00;;;;;;5051868;28;19933;-76
2023/06/02 12:48:01;;;;;;;;;;;24.10;46.10;;;;;;5060482;28;19954;-76
2023/06/02 12:50:28;;;;;;;;;;;24.10;46.60;;;;;;5053805;28;19942;-76
2023/06/02 12:52:54;;;;;;;;;;;24.20;46.20;;;;;;5059780;28;19967;-76
2023/06/02 12:55:21;;;;;;;;;;;24.20;46.50;;;;;;5067934;28;20416;-76
2023/06/02 12:57:48;;;;;;;;;;;24.30;46.70;;;;;;5059795;28;19937;-76
2023/06/02 13:00:16;;;;;;;;;;;24.30;45.90;;;;;;5066747;28;20627;-75
2023/06/02 13:02:44;;;;;;;;;;;24.30;45.90;;;;;;5069059;28;19971;-74
2023/06/02 13:05:11;;;;;;;;;;;24.30;46.40;;;;;;5057787;28;19929;-75
2023/06/02 13:07:38;;;;;;;;;;;24.40;46.80;;;;;;5062771;28;19985;-76
2023/06/02 13:10:06;;;;;;;;;;;24.40;46.00;;;;;;5064900;28;19935;-76
2023/06/02 13:12:32;;;;;;;;;;;24.50;46.30;;;;;;5064905;28;19928;-76
2023/06/02 13:14:59;;;;;;;;;;;24.50;46.20;;;;;;5065344;28;19936;-76
2023/06/02 13:17:27;;;;;;;;;;;24.50;46.20;;;;;;5070615;28;20109;-76
2023/06/02 13:19:54;;;;;;;;;;;24.60;45.60;;;;;;5064963;28;19928;-76
2023/06/02 13:22:20;;;;;;;;;;;24.60;45.50;;;;;;5057378;28;20597;-76
2023/06/02 13:24:47;;;;;;;;;;;24.70;46.10;;;;;;5064714;28;19935;-76
2023/06/02 13:27:14;;;;;;;;;;;24.70;45.80;;;;;;5060162;28;19963;-76
2023/06/02 13:29:40;;;;;;;;;;;24.80;46.00;;;;;;5064121;28;19939;-76
2023/06/02 13:32:07;;;;;;;;;;;24.80;46.10;;;;;;5071346;28;20268;-76
2023/06/02 13:34:35;;;;;;;;;;;24.90;46.00;;;;;;5069478;28;19929;-75
2023/06/02 13:37:02;;;;;;;;;;;24.90;45.40;;;;;;5071208;28;20048;-76
2023/06/02 13:39:28;;;;;;;;;;;24.90;44.80;;;;;;5065886;28;19955;-75
2023/06/02 13:41:55;;;;;;;;;;;25.00;45.60;;;;;;5069627;28;20573;-77
2023/06/02 13:44:21;;;;;;;;;;;25.10;44.60;;;;;;5064102;28;19990;-75
2023/06/02 13:46:50;;;;;;;;;;;25.10;44.50;;;;;;5061596;28;20245;-76
2023/06/02 13:49:19;;;;;;;;;;;25.20;44.00;;;;;;5068579;28;19932;-76
2023/06/02 13:51:48;;;;;;;;;;;25.20;44.20;;;;;;5065750;28;20649;-76
2023/06/02 13:54:15;;;;;;;;;;;25.30;44.90;;;;;;5063074;28;20025;-76
2023/06/02 13:56:42;;;;;;;;;;;25.30;44.90;;;;;;5062804;28;19936;-76
2023/06/02 13:59:08;;;;;;;;;;;25.40;45.00;;;;;;5059830;28;19932;-76
2023/06/02 14:01:35;;;;;;;;;;;25.40;44.60;;;;;;5065262;28;19928;-76
2023/06/02 14:04:01;;;;;;;;;;;25.50;44.60;;;;;;5058740;28;20621;-77
2023/06/02 14:06:28;;;;;;;;;;;25.50;44.30;;;;;;5064361;28;19935;-76
2023/06/02 14:08:56;;;;;;;;;;;25.60;45.00;;;;;;5055653;28;19932;-76
2023/06/02 14:11:23;;;;;;;;;;;25.60;44.40;;;;;;5067333;28;19929;-76
2023/06/02 14:13:49;;;;;;;;;;;25.60;43.70;;;;;;5071324;28;19928;-76
2023/06/02 14:16:16;;;;;;;;;;;25.70;44.20;;;;;;5067088;28;19936;-76
2023/06/02 14:18:42;;;;;;;;;;;25.80;44.40;;;;;;5069611;28;19981;-76